createdAt,value
2018-12-08T00:01:17.895Z,6.30
2018-12-08T00:03:45.420Z,6.30
2018-12-08T00:06:13.108Z,6.30
2018-12-08T00:08:40.616Z,6.30
2018-12-08T00:11:08.135Z,6.20
2018-12-08T00:13:35.757Z,6.20
2018-12-08T00:16:03.271Z,6.20
2018-12-08T00:18:30.811Z,6.10
2018-12-08T00:20:58.301Z,6.10
2018-12-08T00:23:25.836Z,6.10
2018-12-08T00:25:53.342Z,6.10
2018-12-08T00:28:20.909Z,6.10
2018-12-08T00:31:00.224Z,6.10
2018-12-08T00:33:27.722Z,6.10
2018-12-08T00:35:55.233Z,6.00
2018-12-08T00:38:22.756Z,6.00
2018-12-08T00:40:50.283Z,6.00
2018-12-08T00:43:17.941Z,6.00
2018-12-08T00:45:45.465Z,6.00
2018-12-08T00:48:13.177Z,6.00
2018-12-08T00:50:40.681Z,6.10
2018-12-08T00:53:08.205Z,6.10
2018-12-08T00:55:35.726Z,6.20
2018-12-08T00:58:03.234Z,6.20
2018-12-08T01:00:30.856Z,6.20
2018-12-08T01:02:58.440Z,6.20
2018-12-08T01:05:25.957Z,6.20
2018-12-08T01:07:53.467Z,6.20
2018-12-08T01:10:20.965Z,6.30
2018-12-08T01:12:48.496Z,6.30
2018-12-08T01:15:16.020Z,6.30
2018-12-08T01:17:43.577Z,6.30
2018-12-08T01:20:11.181Z,6.30
2018-12-08T01:22:38.787Z,6.40
2018-12-08T01:25:06.541Z,6.40
2018-12-08T01:27:34.069Z,6.40
2018-12-08T01:30:01.573Z,6.40
2018-12-08T01:32:29.097Z,6.40
2018-12-08T01:34:56.697Z,6.40
2018-12-08T01:37:24.225Z,6.40
2018-12-08T01:39:51.731Z,6.40
2018-12-08T01:42:19.360Z,6.40
2018-12-08T01:44:46.979Z,6.50
2018-12-08T01:47:14.536Z,6.50
2018-12-08T01:49:42.068Z,6.50
2018-12-08T01:52:09.685Z,6.50
2018-12-08T01:54:37.211Z,6.40
2018-12-08T01:57:04.833Z,6.50
2018-12-08T01:59:32.345Z,6.50
2018-12-08T02:01:59.968Z,6.40
2018-12-08T02:04:27.503Z,6.50
2018-12-08T02:06:55.114Z,6.50
2018-12-08T02:09:22.632Z,6.40
2018-12-08T02:11:50.228Z,6.40
2018-12-08T02:14:17.904Z,6.40
2018-12-08T02:16:45.441Z,6.40
2018-12-08T02:19:12.994Z,6.40
2018-12-08T02:21:40.513Z,6.40
2018-12-08T02:24:08.019Z,6.40
2018-12-08T02:26:35.780Z,6.40
2018-12-08T02:29:03.440Z,6.30
2018-12-08T02:31:30.938Z,6.30
2018-12-08T02:33:58.454Z,6.30
2018-12-08T02:36:26.042Z,6.30
2018-12-08T02:38:53.596Z,6.30
2018-12-08T02:41:21.157Z,6.30
2018-12-08T02:43:48.652Z,6.30
2018-12-08T02:46:16.577Z,6.40
2018-12-08T02:48:44.280Z,6.40
2018-12-08T02:51:11.982Z,6.40
2018-12-08T02:53:39.484Z,6.40
2018-12-08T02:56:07.155Z,6.30
2018-12-08T02:58:34.685Z,6.30
2018-12-08T03:01:02.188Z,6.30
2018-12-08T03:03:29.703Z,6.30
2018-12-08T03:05:57.237Z,6.40
2018-12-08T03:08:24.750Z,6.30
2018-12-08T03:10:52.558Z,6.30
2018-12-08T03:13:20.057Z,6.30
2018-12-08T03:15:47.676Z,6.30
2018-12-08T03:18:15.188Z,6.30
2018-12-08T03:20:42.716Z,6.30
2018-12-08T03:23:10.285Z,6.30
2018-12-08T03:25:37.937Z,6.30
2018-12-08T03:28:05.530Z,6.40
2018-12-08T03:30:33.096Z,6.40
2018-12-08T03:33:00.682Z,6.40
2018-12-08T03:35:28.446Z,6.40
2018-12-08T03:37:55.929Z,6.40
2018-12-08T03:40:23.493Z,6.50
2018-12-08T03:42:51.121Z,6.50
2018-12-08T03:45:18.708Z,6.50
2018-12-08T03:47:46.239Z,6.50
2018-12-08T03:50:13.797Z,6.50
2018-12-08T03:52:41.285Z,6.50
2018-12-08T03:55:08.915Z,6.50
2018-12-08T03:57:36.497Z,6.50
2018-12-08T04:00:06.004Z,6.50
2018-12-08T04:02:33.517Z,6.50
2018-12-08T04:05:01.031Z,6.50
2018-12-08T04:07:28.553Z,6.50
2018-12-08T04:09:56.316Z,6.50
2018-12-08T04:12:23.924Z,6.50
2018-12-08T04:14:51.535Z,6.60
2018-12-08T04:17:19.034Z,6.60
2018-12-08T04:19:46.754Z,6.60
2018-12-08T04:22:14.422Z,6.60
2018-12-08T04:24:41.914Z,6.60
2018-12-08T04:27:09.453Z,6.70
2018-12-08T04:29:36.968Z,6.70
2018-12-08T04:32:04.650Z,6.70
2018-12-08T04:34:32.169Z,6.70
2018-12-08T04:36:59.683Z,6.70
2018-12-08T04:39:27.224Z,6.80
2018-12-08T04:41:54.888Z,6.70
2018-12-08T04:44:22.402Z,6.70
2018-12-08T04:46:49.909Z,6.80
2018-12-08T04:49:17.458Z,6.80
2018-12-08T04:51:44.988Z,6.80
2018-12-08T04:54:12.781Z,6.80
2018-12-08T04:56:40.280Z,6.80
2018-12-08T04:59:07.821Z,6.80
2018-12-08T05:01:35.547Z,6.80
2018-12-08T05:04:03.061Z,6.80
2018-12-08T05:06:30.685Z,6.80
2018-12-08T05:08:58.189Z,6.80
2018-12-08T05:11:25.897Z,6.80
2018-12-08T05:13:53.381Z,6.80
2018-12-08T05:16:20.924Z,6.80
2018-12-08T05:18:48.470Z,6.80
2018-12-08T05:21:16.045Z,6.80
2018-12-08T05:23:43.574Z,6.70
2018-12-08T05:26:11.074Z,6.60
2018-12-08T05:28:38.582Z,6.60
2018-12-08T05:31:06.113Z,6.50
2018-12-08T05:33:33.719Z,6.50
2018-12-08T05:36:01.205Z,6.50
2018-12-08T05:38:28.741Z,6.40
2018-12-08T05:40:56.259Z,6.40
2018-12-08T05:43:23.773Z,6.30
2018-12-08T05:45:51.286Z,6.40
2018-12-08T05:48:18.793Z,6.30
2018-12-08T05:50:46.429Z,6.40
2018-12-08T05:53:13.917Z,6.40
2018-12-08T05:55:41.452Z,6.30
2018-12-08T05:58:09.002Z,6.40
2018-12-08T06:00:36.693Z,6.40
2018-12-08T06:03:04.229Z,6.40
2018-12-08T06:05:31.726Z,6.40
2018-12-08T06:07:59.440Z,6.40
2018-12-08T06:10:26.999Z,6.30
2018-12-08T06:12:54.520Z,6.30
2018-12-08T06:15:22.020Z,6.20
2018-12-08T06:17:49.630Z,6.20
2018-12-08T06:20:17.156Z,6.20
2018-12-08T06:22:44.689Z,6.20
2018-12-08T06:25:14.970Z,6.20
2018-12-08T06:27:47.294Z,6.20
2018-12-08T06:30:14.943Z,6.20
2018-12-08T06:32:42.437Z,6.20
2018-12-08T06:35:09.960Z,6.30
2018-12-08T06:37:37.453Z,6.20
2018-12-08T06:40:06.169Z,6.20
2018-12-08T06:42:33.862Z,6.20
2018-12-08T06:45:01.423Z,6.10
2018-12-08T06:47:28.997Z,6.10
2018-12-08T06:49:56.564Z,6.10
2018-12-08T06:52:24.138Z,6.10
2018-12-08T06:54:51.719Z,6.10
2018-12-08T06:57:19.320Z,6.10
2018-12-08T06:59:46.805Z,6.20
2018-12-08T07:02:14.406Z,6.20
2018-12-08T07:04:41.910Z,6.20
2018-12-08T07:07:09.425Z,6.20
2018-12-08T07:09:36.925Z,6.10
2018-12-08T07:12:04.529Z,6.00
2018-12-08T07:14:32.049Z,6.00
2018-12-08T07:16:59.647Z,6.00
2018-12-08T07:19:27.165Z,5.90
2018-12-08T07:21:54.686Z,6.00
2018-12-08T07:24:22.219Z,6.00
2018-12-08T07:26:49.820Z,6.00
2018-12-08T07:29:17.380Z,6.00
2018-12-08T07:31:45.047Z,6.10
2018-12-08T07:34:12.685Z,6.10
2018-12-08T07:36:40.223Z,6.10
2018-12-08T07:39:07.829Z,6.10
2018-12-08T07:41:35.374Z,6.10
2018-12-08T07:44:02.856Z,6.10
2018-12-08T07:46:30.492Z,6.10
2018-12-08T07:48:57.990Z,6.10
2018-12-08T07:51:25.557Z,6.10
2018-12-08T07:53:53.109Z,6.20
2018-12-08T07:56:20.661Z,6.20
2018-12-08T07:58:48.164Z,6.20
2018-12-08T08:01:15.689Z,6.20
2018-12-08T08:03:43.205Z,6.30
2018-12-08T08:06:10.708Z,6.30
2018-12-08T08:08:38.359Z,6.40
2018-12-08T08:11:05.873Z,6.40
2018-12-08T08:13:33.368Z,6.50
2018-12-08T08:16:00.888Z,6.60
2018-12-08T08:18:28.400Z,6.60
2018-12-08T08:20:56.007Z,6.60
2018-12-08T08:23:23.513Z,6.50
2018-12-08T08:25:51.128Z,6.50
2018-12-08T08:28:18.626Z,6.40
2018-12-08T08:30:46.152Z,6.30
2018-12-08T08:33:13.649Z,6.30
2018-12-08T08:35:41.290Z,6.20
2018-12-08T08:38:08.869Z,6.10
2018-12-08T08:40:36.506Z,6.10
2018-12-08T08:43:04.090Z,6.10
2018-12-08T08:45:31.668Z,6.10
2018-12-08T08:47:59.168Z,6.10
2018-12-08T08:50:26.723Z,6.10
2018-12-08T08:52:54.216Z,6.10
2018-12-08T08:55:21.832Z,6.10
2018-12-08T08:57:49.436Z,6.10
2018-12-08T09:00:17.070Z,6.10
2018-12-08T09:02:44.607Z,6.20
2018-12-08T09:05:12.308Z,6.20
2018-12-08T09:07:39.826Z,6.20
2018-12-08T09:10:08.511Z,6.30
2018-12-08T09:12:36.070Z,6.30
2018-12-08T09:15:06.072Z,6.30
2018-12-08T09:17:34.055Z,6.30
2018-12-08T09:20:01.538Z,6.30
2018-12-08T09:22:29.172Z,6.40
2018-12-08T09:24:56.685Z,6.40
2018-12-08T09:27:24.319Z,6.40
2018-12-08T09:29:51.853Z,6.50
2018-12-08T09:32:19.509Z,6.40
2018-12-08T09:34:47.068Z,6.40
2018-12-08T09:37:14.562Z,6.40
2018-12-08T09:39:42.083Z,6.40
2018-12-08T09:42:09.652Z,6.50
2018-12-08T09:44:37.164Z,6.40
2018-12-08T09:47:04.714Z,6.40
2018-12-08T09:49:32.249Z,6.40
2018-12-08T09:51:59.770Z,6.40
2018-12-08T09:54:27.297Z,6.40
2018-12-08T09:56:54.818Z,6.30
2018-12-08T09:59:22.600Z,6.40
2018-12-08T10:01:50.228Z,6.30
2018-12-08T10:04:17.737Z,6.40
2018-12-08T10:06:45.548Z,6.40
2018-12-08T10:09:13.102Z,6.40
2018-12-08T10:11:40.630Z,6.50
2018-12-08T10:14:08.223Z,6.50
2018-12-08T10:16:35.842Z,6.50
2018-12-08T10:19:03.368Z,6.50
2018-12-08T10:21:30.904Z,6.50
2018-12-08T10:23:58.431Z,6.60
2018-12-08T10:26:26.164Z,6.50
2018-12-08T10:28:53.705Z,6.50
2018-12-08T10:31:21.205Z,6.50
2018-12-08T10:33:48.736Z,6.50
2018-12-08T10:36:16.277Z,6.50
2018-12-08T10:38:44.004Z,6.40
2018-12-08T10:41:11.615Z,6.40
2018-12-08T10:43:39.148Z,6.40
2018-12-08T10:46:06.738Z,6.40
2018-12-08T10:48:34.262Z,6.40
2018-12-08T10:51:01.761Z,6.40
2018-12-08T10:53:29.296Z,6.40
2018-12-08T10:55:56.953Z,6.40
2018-12-08T10:58:24.620Z,6.40
2018-12-08T11:00:57.970Z,6.40
2018-12-08T11:03:26.824Z,6.40
2018-12-08T11:05:54.745Z,6.40
2018-12-08T11:08:22.490Z,6.40
2018-12-08T11:10:50.049Z,6.50
2018-12-08T11:13:17.608Z,6.50
2018-12-08T11:15:45.168Z,6.50
2018-12-08T11:18:12.676Z,6.40
2018-12-08T11:20:40.205Z,6.60
2018-12-08T11:23:07.730Z,6.60
2018-12-08T11:25:35.252Z,6.70
2018-12-08T11:28:02.770Z,6.70
2018-12-08T11:30:31.395Z,6.60
2018-12-08T11:32:59.307Z,6.70
2018-12-08T11:35:26.816Z,6.60
2018-12-08T11:37:54.356Z,6.60
2018-12-08T11:40:21.865Z,6.70
2018-12-08T11:42:49.485Z,6.70
2018-12-08T11:45:17.099Z,6.70
2018-12-08T11:47:44.578Z,6.70
2018-12-08T11:50:12.125Z,6.80
2018-12-08T11:52:39.647Z,6.80
2018-12-08T11:55:07.266Z,6.90
2018-12-08T11:57:34.785Z,6.90
2018-12-08T12:00:02.555Z,6.90
2018-12-08T12:02:30.149Z,6.90
2018-12-08T12:04:57.720Z,6.90
2018-12-08T12:07:25.397Z,6.90
2018-12-08T12:09:52.942Z,6.90
2018-12-08T12:12:20.481Z,6.90
2018-12-08T12:14:48.015Z,6.90
2018-12-08T12:17:15.568Z,6.90
2018-12-08T12:19:43.130Z,7.00
2018-12-08T12:22:10.648Z,7.00
2018-12-08T12:24:38.163Z,7.00
2018-12-08T12:27:05.687Z,7.10
2018-12-08T12:29:33.188Z,7.10
2018-12-08T12:32:00.817Z,7.10
2018-12-08T12:34:28.308Z,7.10
2018-12-08T12:36:55.844Z,7.10
2018-12-08T12:39:23.380Z,7.10
2018-12-08T12:41:50.925Z,7.20
2018-12-08T12:44:18.440Z,7.20
2018-12-08T12:46:45.965Z,7.20
2018-12-08T12:49:13.530Z,7.20
2018-12-08T12:51:41.184Z,7.20
2018-12-08T12:54:08.848Z,7.30
2018-12-08T12:56:36.349Z,7.30
2018-12-08T12:59:03.981Z,7.40
2018-12-08T13:01:31.526Z,7.50
2018-12-08T13:03:59.232Z,7.60
2018-12-08T13:06:26.978Z,7.60
2018-12-08T13:08:54.758Z,7.60
2018-12-08T13:11:22.280Z,7.60
2018-12-08T13:13:49.793Z,7.60
2018-12-08T13:16:17.453Z,7.60
2018-12-08T13:18:44.945Z,7.60
2018-12-08T13:21:12.708Z,7.70
2018-12-08T13:23:40.198Z,7.70
2018-12-08T13:26:07.723Z,7.80
2018-12-08T13:28:35.286Z,7.80
2018-12-08T13:31:02.894Z,7.80
2018-12-08T13:33:30.500Z,7.70
2018-12-08T13:35:58.161Z,7.70
2018-12-08T13:38:25.916Z,7.70
2018-12-08T13:40:53.409Z,7.70
2018-12-08T13:43:20.965Z,7.70
2018-12-08T13:45:48.577Z,7.70
2018-12-08T13:48:16.782Z,7.70
2018-12-08T13:50:44.639Z,7.70
2018-12-08T13:53:12.302Z,7.60
2018-12-08T13:55:39.829Z,7.60
2018-12-08T13:58:07.421Z,7.70
2018-12-08T14:00:34.922Z,7.70
2018-12-08T14:03:02.468Z,7.60
2018-12-08T14:05:30.017Z,7.70
2018-12-08T14:07:57.551Z,7.60
2018-12-08T14:10:25.163Z,7.60
2018-12-08T14:12:52.778Z,7.60
2018-12-08T14:15:20.392Z,7.50
2018-12-08T14:17:47.907Z,7.40
2018-12-08T14:20:21.899Z,7.40
2018-12-08T14:22:49.422Z,7.40
2018-12-08T14:25:17.010Z,7.30
2018-12-08T14:27:44.703Z,7.20
2018-12-08T14:30:12.415Z,7.10
2018-12-08T14:32:40.033Z,7.10
2018-12-08T14:35:07.593Z,7.10
2018-12-08T14:37:35.117Z,7.10
2018-12-08T14:40:03.233Z,7.10
2018-12-08T14:42:30.849Z,7.10
2018-12-08T14:44:58.620Z,7.10
2018-12-08T14:47:26.273Z,7.10
2018-12-08T14:49:53.873Z,7.10
2018-12-08T14:52:21.452Z,7.10
2018-12-08T14:54:48.953Z,7.10
2018-12-08T14:57:16.522Z,7.00
2018-12-08T14:59:44.053Z,7.00
2018-12-08T15:02:11.565Z,7.00
2018-12-08T15:04:39.184Z,7.10
2018-12-08T15:07:06.744Z,7.10
2018-12-08T15:09:34.301Z,7.10
2018-12-08T15:12:01.896Z,7.20
2018-12-08T15:14:29.420Z,7.20
2018-12-08T15:16:57.072Z,7.20
2018-12-08T15:19:24.601Z,7.20
2018-12-08T15:21:52.296Z,7.20
2018-12-08T15:24:20.007Z,7.20
2018-12-08T15:26:47.516Z,7.20
2018-12-08T15:29:15.098Z,7.20
2018-12-08T15:31:42.638Z,7.20
2018-12-08T15:34:10.127Z,7.20
2018-12-08T15:36:37.668Z,7.20
2018-12-08T15:39:06.235Z,7.20
2018-12-08T15:41:33.737Z,7.20
2018-12-08T15:44:01.457Z,7.20
2018-12-08T15:46:29.129Z,7.20
2018-12-08T15:48:56.674Z,7.30
2018-12-08T15:51:24.336Z,7.30
2018-12-08T15:53:51.838Z,7.30
2018-12-08T15:56:19.354Z,7.30
2018-12-08T15:58:46.849Z,7.30
2018-12-08T16:01:14.436Z,7.30
2018-12-08T16:03:42.057Z,7.30
2018-12-08T16:06:09.584Z,7.30
2018-12-08T16:08:37.128Z,7.30
2018-12-08T16:11:04.828Z,7.30
2018-12-08T16:13:32.365Z,8.10
2018-12-08T16:15:59.953Z,7.40
2018-12-08T16:18:27.532Z,7.40
2018-12-08T16:20:55.158Z,7.40
2018-12-08T16:23:22.811Z,7.50
2018-12-08T16:25:50.421Z,7.50
2018-12-08T16:28:17.953Z,7.50
2018-12-08T16:30:45.503Z,7.50
2018-12-08T16:33:13.054Z,7.60
2018-12-08T16:35:40.569Z,7.60
2018-12-08T16:38:08.276Z,7.70
2018-12-08T16:40:35.816Z,7.70
2018-12-08T16:43:03.376Z,7.70
2018-12-08T16:45:30.957Z,7.70
2018-12-08T16:47:58.492Z,7.70
2018-12-08T16:50:26.097Z,7.70
2018-12-08T16:52:53.801Z,7.70
2018-12-08T16:55:21.377Z,7.70
2018-12-08T16:57:48.897Z,7.80
2018-12-08T17:00:16.572Z,7.80
2018-12-08T17:02:44.180Z,7.80
2018-12-08T17:05:11.943Z,7.80
2018-12-08T17:07:39.448Z,7.80
2018-12-08T17:10:07.545Z,7.80
2018-12-08T17:12:35.170Z,7.80
2018-12-08T17:15:03.072Z,7.80
2018-12-08T17:17:33.782Z,7.70
2018-12-08T17:20:01.364Z,7.70
2018-12-08T17:22:28.873Z,7.80
2018-12-08T17:24:56.389Z,7.70
2018-12-08T17:27:24.168Z,7.80
2018-12-08T17:29:51.809Z,7.80
2018-12-08T17:32:19.363Z,7.80
2018-12-08T17:34:46.869Z,7.80
2018-12-08T17:37:14.380Z,7.80
2018-12-08T17:39:41.996Z,7.80
2018-12-08T17:42:09.500Z,7.80
2018-12-08T17:44:37.025Z,7.80
2018-12-08T17:47:04.617Z,7.80
2018-12-08T17:49:32.163Z,7.80
2018-12-08T17:51:59.833Z,7.80
2018-12-08T17:54:27.417Z,7.80
2018-12-08T17:56:55.080Z,7.90
2018-12-08T17:59:22.592Z,7.80
2018-12-08T18:01:50.122Z,7.90
2018-12-08T18:04:17.730Z,7.90
2018-12-08T18:06:45.460Z,7.90
2018-12-08T18:09:13.043Z,7.90
2018-12-08T18:11:40.577Z,7.90
2018-12-08T18:14:08.578Z,8.00
2018-12-08T18:16:36.096Z,8.00
2018-12-08T18:19:03.617Z,8.00
2018-12-08T18:21:31.135Z,8.00
2018-12-08T18:23:58.651Z,8.00
2018-12-08T18:26:26.276Z,8.00
2018-12-08T18:28:53.929Z,7.90
2018-12-08T18:31:21.489Z,7.90
2018-12-08T18:33:49.019Z,7.90
2018-12-08T18:36:16.608Z,8.00
2018-12-08T18:38:44.108Z,8.00
2018-12-08T18:41:11.647Z,8.00
2018-12-08T18:43:39.163Z,8.00
2018-12-08T18:46:06.672Z,8.00
2018-12-08T18:48:34.199Z,8.00
2018-12-08T18:51:01.710Z,8.10
2018-12-08T18:53:29.246Z,8.10
2018-12-08T18:55:56.871Z,8.00
2018-12-08T18:58:24.377Z,8.00
2018-12-08T19:00:52.001Z,8.00
2018-12-08T19:03:19.505Z,7.90
2018-12-08T19:05:47.138Z,7.90
2018-12-08T19:08:15.014Z,7.90
2018-12-08T19:10:42.570Z,7.90
2018-12-08T19:13:10.176Z,7.90
2018-12-08T19:15:37.673Z,7.90
2018-12-08T19:18:05.197Z,7.90
2018-12-08T19:20:32.708Z,8.00
2018-12-08T19:23:00.278Z,8.00
2018-12-08T19:25:27.882Z,8.00
2018-12-08T19:27:55.439Z,8.00
2018-12-08T19:30:22.973Z,8.00
2018-12-08T19:32:50.518Z,8.00
2018-12-08T19:35:18.113Z,8.00
2018-12-08T19:37:46.496Z,8.00
2018-12-08T19:40:13.962Z,8.00
2018-12-08T19:42:41.458Z,8.00
2018-12-08T19:45:09.042Z,8.00
2018-12-08T19:47:36.569Z,8.10
2018-12-08T19:50:05.394Z,8.10
2018-12-08T19:52:32.921Z,8.10
2018-12-08T19:55:00.531Z,8.10
2018-12-08T19:57:28.022Z,8.00
2018-12-08T19:59:55.580Z,8.00
2018-12-08T20:02:23.089Z,7.90
2018-12-08T20:04:50.638Z,7.80
2018-12-08T20:07:18.251Z,7.80
2018-12-08T20:09:45.831Z,7.70
2018-12-08T20:12:13.403Z,7.70
2018-12-08T20:14:40.926Z,7.60
2018-12-08T20:17:08.458Z,7.60
2018-12-08T20:19:35.974Z,7.60
2018-12-08T20:22:03.676Z,7.50
2018-12-08T20:24:31.188Z,7.50
2018-12-08T20:26:58.697Z,7.50
2018-12-08T20:29:26.322Z,7.50
2018-12-08T20:31:53.821Z,7.50
2018-12-08T20:34:21.475Z,7.50
2018-12-08T20:36:48.989Z,7.50
2018-12-08T20:39:16.562Z,7.50
2018-12-08T20:41:44.057Z,7.50
2018-12-08T20:44:11.665Z,7.50
2018-12-08T20:46:39.367Z,7.50
2018-12-08T20:49:06.858Z,7.50
2018-12-08T20:51:34.401Z,7.50
2018-12-08T20:54:02.044Z,7.50
2018-12-08T20:56:29.605Z,7.50
2018-12-08T20:58:57.105Z,7.50
2018-12-08T21:01:24.759Z,7.50
2018-12-08T21:03:52.249Z,7.50
2018-12-08T21:06:19.833Z,7.60
2018-12-08T21:08:47.395Z,7.60
2018-12-08T21:11:14.970Z,7.60
2018-12-08T21:13:42.497Z,7.60
2018-12-08T21:16:10.003Z,7.60
2018-12-08T21:18:37.545Z,7.60
2018-12-08T21:21:05.188Z,7.50
2018-12-08T21:23:32.682Z,7.60
2018-12-08T21:26:00.217Z,7.60
2018-12-08T21:28:27.734Z,7.60
2018-12-08T21:30:55.370Z,7.60
2018-12-08T21:33:22.983Z,7.60
2018-12-08T21:35:50.491Z,7.60
2018-12-08T21:38:18.099Z,7.60
2018-12-08T21:40:45.754Z,7.60
2018-12-08T21:43:13.265Z,7.60
2018-12-08T21:45:40.881Z,7.60
2018-12-08T21:48:08.436Z,7.60
2018-12-08T21:50:36.809Z,7.60
2018-12-08T21:53:04.343Z,7.70
2018-12-08T21:55:31.841Z,7.70
2018-12-08T21:57:59.360Z,7.70
2018-12-08T22:00:26.898Z,7.70
2018-12-08T22:02:54.417Z,7.70
2018-12-08T22:05:22.067Z,7.70
2018-12-08T22:07:49.576Z,7.70
2018-12-08T22:10:17.181Z,7.70
2018-12-08T22:12:44.697Z,7.70
2018-12-08T22:15:15.434Z,7.70
2018-12-08T22:17:43.646Z,7.70
2018-12-08T22:20:11.430Z,7.70
2018-12-08T22:22:39.071Z,7.70
2018-12-08T22:25:06.662Z,7.70
2018-12-08T22:27:34.191Z,7.70
2018-12-08T22:30:01.690Z,7.70
2018-12-08T22:32:29.341Z,7.70
2018-12-08T22:34:57.266Z,7.70
2018-12-08T22:37:24.784Z,7.70
2018-12-08T22:39:52.281Z,7.70
2018-12-08T22:42:19.810Z,7.70
2018-12-08T22:44:47.312Z,7.70
2018-12-08T22:47:14.833Z,7.70
2018-12-08T22:49:42.342Z,7.70
2018-12-08T22:52:09.873Z,7.70
2018-12-08T22:54:37.425Z,7.70
2018-12-08T22:57:05.097Z,7.70
2018-12-08T22:59:32.603Z,7.70
2018-12-08T23:02:00.239Z,7.70
2018-12-08T23:04:27.857Z,7.80
2018-12-08T23:07:00.662Z,7.80
2018-12-08T23:09:28.275Z,7.80
2018-12-08T23:11:55.993Z,7.80
2018-12-08T23:14:23.579Z,7.80
2018-12-08T23:16:51.298Z,7.80
2018-12-08T23:19:18.962Z,7.80
2018-12-08T23:21:46.521Z,7.90
2018-12-08T23:24:14.034Z,7.90
2018-12-08T23:26:41.649Z,7.90
2018-12-08T23:29:09.198Z,8.00
2018-12-08T23:31:36.799Z,8.00
2018-12-08T23:34:04.389Z,8.00
2018-12-08T23:36:31.914Z,8.10
2018-12-08T23:38:59.534Z,8.10
2018-12-08T23:41:27.225Z,8.10
2018-12-08T23:43:54.791Z,8.20
2018-12-08T23:46:22.489Z,8.20
2018-12-08T23:48:50.018Z,8.30
2018-12-08T23:51:18.591Z,8.30
2018-12-08T23:53:46.329Z,8.40
2018-12-08T23:56:13.832Z,8.40
2018-12-08T23:58:41.369Z,8.40
